createdAt,value
2023-03-08T00:02:17.455Z,1.10
2023-03-08T00:04:44.643Z,1.10
2023-03-08T00:07:11.814Z,1.10
2023-03-08T00:09:39.225Z,1.10
2023-03-08T00:12:07.584Z,1.10
2023-03-08T00:14:35.317Z,1.10
2023-03-08T00:17:02.936Z,1.00
2023-03-08T00:19:30.160Z,1.10
2023-03-08T00:21:57.628Z,1.10
2023-03-08T00:24:24.607Z,1.00
2023-03-08T00:26:51.687Z,1.10
2023-03-08T00:29:18.760Z,1.10
2023-03-08T00:31:45.850Z,1.00
2023-03-08T00:34:12.973Z,1.00
2023-03-08T00:36:40.130Z,1.00
2023-03-08T00:39:07.195Z,1.10
2023-03-08T00:41:34.332Z,1.00
2023-03-08T00:44:01.719Z,1.00
2023-03-08T00:46:28.697Z,1.00
2023-03-08T00:48:55.785Z,1.00
2023-03-08T00:51:22.981Z,1.00
2023-03-08T00:53:50.344Z,1.00
2023-03-08T00:56:17.568Z,1.00
2023-03-08T00:58:45.246Z,1.00
2023-03-08T01:01:17.094Z,1.00
2023-03-08T01:03:44.520Z,1.00
2023-03-08T01:06:14.096Z,1.00
2023-03-08T01:08:42.209Z,1.00
2023-03-08T01:11:23.040Z,1.00
2023-03-08T01:13:51.542Z,1.00
2023-03-08T01:16:24.973Z,0.90
2023-03-08T01:18:52.096Z,0.90
2023-03-08T01:21:19.318Z,0.90
2023-03-08T01:23:47.376Z,0.90
2023-03-08T01:26:17.208Z,0.90
2023-03-08T01:28:44.474Z,0.90
2023-03-08T01:31:15.303Z,0.90
2023-03-08T01:33:43.945Z,0.90
2023-03-08T01:36:15.156Z,0.80
2023-03-08T01:38:43.391Z,0.80
2023-03-08T01:41:25.823Z,0.80
2023-03-08T01:43:53.777Z,0.80
2023-03-08T01:46:36.840Z,0.70
2023-03-08T01:49:17.336Z,0.70
2023-03-08T01:51:50.033Z,0.60
2023-03-08T01:54:22.401Z,0.70
2023-03-08T01:56:51.508Z,0.70
2023-03-08T01:59:21.037Z,0.60
2023-03-08T02:01:48.764Z,0.60
2023-03-08T02:04:15.868Z,0.60
2023-03-08T02:06:44.122Z,0.60
2023-03-08T02:09:11.469Z,0.50
2023-03-08T02:11:43.987Z,0.50
2023-03-08T02:14:11.412Z,0.40
2023-03-08T02:16:39.790Z,0.40
2023-03-08T02:19:14.634Z,0.30
2023-03-08T02:21:42.120Z,0.30
2023-03-08T02:24:24.843Z,0.30
2023-03-08T02:26:55.067Z,0.30
2023-03-08T02:29:22.265Z,0.30
2023-03-08T02:31:49.392Z,0.20
2023-03-08T02:34:16.404Z,0.20
2023-03-08T02:36:43.589Z,0.20
2023-03-08T02:39:10.589Z,0.10
2023-03-08T02:41:37.500Z,0.10
2023-03-08T02:44:04.640Z,0.10
2023-03-08T02:46:31.565Z,0.10
2023-03-08T02:48:58.697Z,0.20
2023-03-08T02:51:25.766Z,0.10
2023-03-08T02:53:53.341Z,0.10
2023-03-08T02:56:20.514Z,0.10
2023-03-08T02:58:47.494Z,0.00
2023-03-08T03:01:15.236Z,0.00
2023-03-08T03:03:42.680Z,0.00
2023-03-08T03:06:18.927Z,0.00
2023-03-08T03:08:46.578Z,-0.10
2023-03-08T03:11:19.724Z,-0.10
2023-03-08T03:13:47.284Z,-0.10
2023-03-08T03:16:16.458Z,-0.10
2023-03-08T03:18:43.897Z,-0.10
2023-03-08T03:21:13.197Z,-0.20
2023-03-08T03:23:41.277Z,-0.10
2023-03-08T03:26:11.114Z,-0.10
2023-03-08T03:28:38.449Z,-0.20
2023-03-08T03:31:10.553Z,-0.20
2023-03-08T03:33:38.216Z,-0.20
2023-03-08T03:36:06.016Z,-0.20
2023-03-08T03:38:33.276Z,-0.20
2023-03-08T03:41:08.923Z,-0.20
2023-03-08T03:43:36.603Z,-0.30
2023-03-08T03:46:06.648Z,-0.30
2023-03-08T03:48:35.911Z,-0.20
2023-03-08T03:51:08.064Z,-0.20
2023-03-08T03:53:35.761Z,-0.20
2023-03-08T03:56:14.680Z,-0.20
2023-03-08T03:58:42.136Z,-0.30
2023-03-08T04:01:11.291Z,-0.30
2023-03-08T04:03:39.398Z,-0.30
2023-03-08T04:06:09.256Z,-0.30
2023-03-08T04:08:42.136Z,-0.30
2023-03-08T04:11:14.578Z,-0.30
2023-03-08T04:13:41.901Z,-0.30
2023-03-08T04:16:15.818Z,-0.30
2023-03-08T04:18:43.282Z,-0.30
2023-03-08T04:21:10.952Z,-0.30
2023-03-08T04:23:38.067Z,-0.30
2023-03-08T04:26:06.339Z,-0.30
2023-03-08T04:28:36.667Z,-0.30
2023-03-08T04:31:21.211Z,-0.40
2023-03-08T04:33:48.667Z,-0.40
2023-03-08T04:36:16.778Z,-0.40
2023-03-08T04:38:44.166Z,-0.40
2023-03-08T04:41:13.961Z,-0.40
2023-03-08T04:43:46.919Z,-0.40
2023-03-08T04:46:14.986Z,-0.40
2023-03-08T04:48:42.299Z,-0.50
2023-03-08T04:51:12.524Z,-0.40
2023-03-08T04:53:41.716Z,-0.50
2023-03-08T04:56:09.386Z,-0.40
2023-03-08T04:58:37.219Z,-0.40
2023-03-08T05:01:15.789Z,-0.50
2023-03-08T05:03:43.488Z,-0.50
2023-03-08T05:06:11.315Z,-0.60
2023-03-08T05:08:38.515Z,-0.50
2023-03-08T05:11:06.268Z,-0.50
2023-03-08T05:13:38.556Z,-0.50
2023-03-08T05:16:07.505Z,-0.50
2023-03-08T05:18:34.903Z,-0.50
2023-03-08T05:21:07.237Z,-0.50
2023-03-08T05:23:34.687Z,-0.50
2023-03-08T05:26:04.003Z,-0.50
2023-03-08T05:28:33.354Z,-0.50
2023-03-08T05:31:02.552Z,-0.50
2023-03-08T05:33:29.924Z,-0.60
2023-03-08T05:35:57.126Z,-0.60
2023-03-08T05:38:24.954Z,-0.50
2023-03-08T05:40:52.203Z,-0.60
2023-03-08T05:43:20.005Z,-0.60
2023-03-08T05:45:58.314Z,-0.60
2023-03-08T05:48:26.213Z,-0.60
2023-03-08T05:50:53.657Z,-0.60
2023-03-08T05:53:21.978Z,-0.60
2023-03-08T05:55:49.891Z,-0.60
2023-03-08T05:58:16.998Z,-0.60
2023-03-08T06:00:44.110Z,-0.60
2023-03-08T06:03:11.182Z,-0.60
2023-03-08T06:05:38.610Z,-0.60
2023-03-08T06:08:05.844Z,-0.50
2023-03-08T06:10:33.237Z,-0.70
2023-03-08T06:13:00.664Z,-0.60
2023-03-08T06:15:27.674Z,-0.70
2023-03-08T06:17:54.770Z,-0.70
2023-03-08T06:20:22.091Z,-0.70
2023-03-08T06:22:49.125Z,-0.70
2023-03-08T06:25:16.232Z,-0.70
2023-03-08T06:27:43.201Z,-0.70
2023-03-08T06:30:10.926Z,-0.70
2023-03-08T06:32:38.060Z,-0.70
2023-03-08T06:35:05.353Z,-0.80
2023-03-08T06:37:34.546Z,-0.70
2023-03-08T06:40:02.253Z,-0.70
2023-03-08T06:42:40.611Z,-0.70
2023-03-08T06:45:09.774Z,-0.80
2023-03-08T06:47:36.744Z,-0.70
2023-03-08T06:50:04.122Z,-0.80
2023-03-08T06:52:37.707Z,-0.80
2023-03-08T06:55:05.543Z,-0.80
2023-03-08T06:57:32.740Z,-0.80
2023-03-08T06:59:59.775Z,-0.70
2023-03-08T07:02:27.078Z,-0.80
2023-03-08T07:04:54.070Z,-0.70
2023-03-08T07:07:21.119Z,-0.70
2023-03-08T07:09:48.909Z,-0.70
2023-03-08T07:12:16.035Z,-0.70
2023-03-08T07:14:43.013Z,-0.80
2023-03-08T07:17:10.135Z,-0.80
2023-03-08T07:19:37.298Z,-0.80
2023-03-08T07:22:04.641Z,-0.80
2023-03-08T07:24:31.525Z,-0.80
2023-03-08T07:26:58.674Z,-0.80
2023-03-08T07:29:25.701Z,-0.80
2023-03-08T07:31:52.881Z,-0.70
2023-03-08T07:34:20.054Z,-0.80
2023-03-08T07:36:47.074Z,-0.80
2023-03-08T07:39:14.257Z,-0.80
2023-03-08T07:41:42.457Z,-0.70
2023-03-08T07:44:09.491Z,-0.70
2023-03-08T07:46:36.572Z,-0.80
2023-03-08T07:49:03.854Z,-0.80
2023-03-08T07:51:31.024Z,-0.80
2023-03-08T07:53:58.174Z,-0.80
2023-03-08T07:56:25.177Z,-0.80
2023-03-08T07:58:52.095Z,-0.80
2023-03-08T08:01:19.030Z,-0.80
2023-03-08T08:03:46.221Z,-0.80
2023-03-08T08:06:13.271Z,-0.80
2023-03-08T08:08:40.875Z,-0.70
2023-03-08T08:11:15.187Z,-0.70
2023-03-08T08:13:42.272Z,-0.70
2023-03-08T08:16:10.268Z,-0.70
2023-03-08T08:18:37.479Z,-0.70
2023-03-08T08:21:10.807Z,-0.70
2023-03-08T08:23:38.272Z,-0.70
2023-03-08T08:26:10.232Z,-0.70
2023-03-08T08:28:39.439Z,-0.80
2023-03-08T08:31:09.927Z,-0.80
2023-03-08T08:33:37.530Z,-0.70
2023-03-08T08:36:06.993Z,-0.70
2023-03-08T08:38:34.101Z,-0.70
2023-03-08T08:41:03.004Z,-0.70
2023-03-08T08:43:30.298Z,-0.70
2023-03-08T08:45:59.287Z,-0.70
2023-03-08T08:48:27.580Z,-0.70
2023-03-08T08:50:55.540Z,-0.60
2023-03-08T08:53:22.803Z,-0.60
2023-03-08T08:55:49.770Z,-0.60
2023-03-08T08:58:16.837Z,-0.60
2023-03-08T09:00:44.640Z,-0.60
2023-03-08T09:03:11.762Z,-0.60
2023-03-08T09:05:41.045Z,-0.60
2023-03-08T09:08:08.951Z,-0.60
2023-03-08T09:10:38.112Z,-0.60
2023-03-08T09:13:05.598Z,-0.60
2023-03-08T09:15:32.674Z,-0.60
2023-03-08T09:17:59.629Z,-0.50
2023-03-08T09:20:26.604Z,-0.50
2023-03-08T09:22:53.574Z,-0.50
2023-03-08T09:25:24.289Z,-0.50
2023-03-08T09:27:51.278Z,-0.50
2023-03-08T09:30:18.736Z,-0.50
2023-03-08T09:32:45.925Z,-0.50
2023-03-08T09:35:12.968Z,-0.50
2023-03-08T09:37:39.912Z,-0.50
2023-03-08T09:40:09.865Z,-0.50
2023-03-08T09:42:38.399Z,-0.50
2023-03-08T09:45:23.954Z,-0.50
2023-03-08T09:48:19.866Z,-0.50
2023-03-08T09:50:55.435Z,-0.50
2023-03-08T09:53:44.689Z,-0.40
2023-03-08T09:56:52.931Z,-0.40
2023-03-08T09:59:32.806Z,-0.50
2023-03-08T10:02:14.227Z,-0.50
2023-03-08T10:05:11.533Z,-0.40
2023-03-08T10:08:00.719Z,-0.40
2023-03-08T10:10:41.438Z,-0.40
2023-03-08T10:13:29.985Z,-0.50
2023-03-08T10:16:26.414Z,-0.40
2023-03-08T10:18:53.356Z,-0.40
2023-03-08T10:21:25.005Z,-0.40
2023-03-08T10:24:07.531Z,-0.40
2023-03-08T10:26:34.764Z,-0.40
2023-03-08T10:29:01.887Z,-0.40
2023-03-08T10:31:31.649Z,-0.40
2023-03-08T10:34:14.362Z,-0.40
2023-03-08T10:36:52.440Z,-0.40
2023-03-08T10:39:21.090Z,-0.30
2023-03-08T10:41:55.344Z,-0.30
2023-03-08T10:44:41.237Z,-0.30
2023-03-08T10:47:19.246Z,-0.30
2023-03-08T10:49:47.538Z,-0.20
2023-03-08T10:52:31.093Z,-0.20
2023-03-08T10:55:06.622Z,-0.20
2023-03-08T10:57:34.048Z,-0.30
2023-03-08T11:00:29.352Z,-0.30
2023-03-08T11:03:13.337Z,-0.20
2023-03-08T11:05:40.719Z,-0.20
2023-03-08T11:08:18.970Z,-0.20
2023-03-08T11:10:45.988Z,-0.20
2023-03-08T11:13:32.116Z,-0.20
2023-03-08T11:16:07.769Z,-0.20
2023-03-08T11:19:09.030Z,-0.10
2023-03-08T11:21:43.722Z,-0.10
2023-03-08T11:24:34.312Z,-0.20
2023-03-08T11:27:22.516Z,-0.10
2023-03-08T11:30:07.647Z,-0.10
2023-03-08T11:32:56.879Z,-0.10
2023-03-08T11:35:54.757Z,-0.10
2023-03-08T11:38:27.626Z,-0.10
2023-03-08T11:41:32.424Z,0.00
2023-03-08T11:44:14.326Z,0.00
2023-03-08T11:47:07.867Z,0.00
2023-03-08T11:49:53.905Z,0.00
2023-03-08T11:52:48.081Z,0.00
2023-03-08T11:55:42.514Z,0.00
2023-03-08T11:58:28.244Z,0.00
2023-03-08T12:01:18.362Z,0.20
2023-03-08T12:03:53.144Z,0.10
2023-03-08T12:06:42.017Z,0.20
2023-03-08T12:09:26.118Z,0.10
2023-03-08T12:12:14.496Z,0.20
2023-03-08T12:15:13.173Z,0.20
2023-03-08T12:17:46.301Z,0.20
2023-03-08T12:20:14.982Z,0.20
2023-03-08T12:22:50.465Z,0.20
2023-03-08T12:25:31.980Z,0.20
2023-03-08T12:28:04.802Z,0.20
2023-03-08T12:31:04.534Z,0.20
2023-03-08T12:33:33.053Z,0.10
2023-03-08T12:36:06.028Z,0.10
2023-03-08T12:38:39.487Z,0.20
2023-03-08T12:41:20.826Z,0.20
2023-03-08T12:43:58.591Z,0.20
2023-03-08T12:46:25.700Z,0.20
2023-03-08T12:48:53.840Z,0.20
2023-03-08T12:51:26.958Z,0.20
2023-03-08T12:54:00.751Z,0.10
2023-03-08T12:56:49.597Z,0.10
2023-03-08T12:59:16.649Z,0.10
2023-03-08T13:02:22.780Z,0.10
2023-03-08T13:04:49.951Z,0.20
2023-03-08T13:07:25.809Z,0.10
2023-03-08T13:10:05.284Z,0.10
2023-03-08T13:13:02.059Z,0.10
2023-03-08T13:15:29.012Z,0.10
2023-03-08T13:18:11.183Z,0.10
2023-03-08T13:20:42.114Z,0.20
2023-03-08T13:23:30.175Z,0.20
2023-03-08T13:26:25.568Z,0.20
2023-03-08T13:28:53.757Z,0.10
2023-03-08T13:31:25.110Z,0.10
2023-03-08T13:33:54.492Z,0.10
2023-03-08T13:36:27.169Z,0.10
2023-03-08T13:39:00.115Z,0.20
2023-03-08T13:41:42.130Z,0.20
2023-03-08T13:44:18.653Z,0.20
2023-03-08T13:46:47.230Z,0.30
2023-03-08T13:49:22.868Z,0.20
2023-03-08T13:51:52.848Z,0.20
2023-03-08T13:54:31.465Z,0.20
2023-03-08T13:57:00.857Z,0.20
2023-03-08T13:59:28.297Z,0.20
2023-03-08T14:01:56.165Z,0.20
2023-03-08T14:04:27.025Z,0.20
2023-03-08T14:06:56.507Z,0.20
2023-03-08T14:09:24.689Z,0.30
2023-03-08T14:12:00.982Z,0.30
2023-03-08T14:14:31.048Z,0.30
2023-03-08T14:16:58.586Z,0.30
2023-03-08T14:19:29.282Z,0.30
2023-03-08T14:22:14.795Z,0.30
2023-03-08T14:24:43.972Z,0.20
2023-03-08T14:27:16.832Z,0.20
2023-03-08T14:29:45.907Z,0.30
2023-03-08T14:32:13.315Z,0.20
2023-03-08T14:34:43.078Z,0.20
2023-03-08T14:37:29.096Z,0.20
2023-03-08T14:40:27.002Z,0.20
2023-03-08T14:43:02.451Z,0.20
2023-03-08T14:45:37.671Z,0.10
2023-03-08T14:48:29.787Z,0.20
2023-03-08T14:51:02.273Z,0.20
2023-03-08T14:53:32.264Z,0.30
2023-03-08T14:56:01.357Z,0.30
2023-03-08T14:58:33.734Z,0.30
2023-03-08T15:01:02.479Z,0.30
2023-03-08T15:03:32.465Z,0.30
2023-03-08T15:06:07.583Z,0.30
2023-03-08T15:08:34.791Z,0.30
2023-03-08T15:11:01.758Z,0.30
2023-03-08T15:13:28.761Z,0.30
2023-03-08T15:15:55.707Z,0.30
2023-03-08T15:18:22.752Z,0.30
2023-03-08T15:20:51.613Z,0.30
2023-03-08T15:23:24.001Z,0.40
2023-03-08T15:25:51.184Z,0.30
2023-03-08T15:28:20.493Z,0.30
2023-03-08T15:30:48.215Z,0.30
2023-03-08T15:33:15.250Z,0.30
2023-03-08T15:35:42.531Z,0.30
2023-03-08T15:38:15.627Z,0.30
2023-03-08T15:40:42.752Z,0.30
2023-03-08T15:43:10.438Z,0.30
2023-03-08T15:45:38.643Z,0.30
2023-03-08T15:48:07.839Z,0.20
2023-03-08T15:50:35.733Z,0.30
2023-03-08T15:53:02.881Z,0.20
2023-03-08T15:55:30.771Z,0.20
2023-03-08T15:57:58.236Z,0.20
2023-03-08T16:00:27.937Z,0.30
2023-03-08T16:02:55.397Z,0.30
2023-03-08T16:05:25.101Z,0.20
2023-03-08T16:08:03.617Z,0.20
2023-03-08T16:10:37.598Z,0.20
2023-03-08T16:13:04.877Z,0.20
2023-03-08T16:15:32.097Z,0.20
2023-03-08T16:17:59.192Z,0.20
2023-03-08T16:20:26.453Z,0.20
2023-03-08T16:22:54.972Z,0.20
2023-03-08T16:25:23.309Z,0.20
2023-03-08T16:27:50.532Z,0.10
2023-03-08T16:30:17.856Z,0.10
2023-03-08T16:32:45.081Z,0.10
2023-03-08T16:35:13.184Z,0.10
2023-03-08T16:37:40.202Z,0.00
2023-03-08T16:40:07.972Z,0.10
2023-03-08T16:42:35.323Z,0.10
2023-03-08T16:45:03.004Z,0.10
2023-03-08T16:47:32.423Z,0.00
2023-03-08T16:50:01.164Z,0.00
2023-03-08T16:52:28.705Z,0.00
2023-03-08T16:54:56.882Z,-0.10
2023-03-08T16:57:23.871Z,0.00
2023-03-08T16:59:51.071Z,-0.10
2023-03-08T17:02:21.745Z,-0.10
2023-03-08T17:04:49.886Z,-0.10
2023-03-08T17:07:17.648Z,-0.20
2023-03-08T17:09:46.385Z,-0.20
2023-03-08T17:12:13.908Z,-0.20
2023-03-08T17:14:41.272Z,-0.20
2023-03-08T17:17:10.411Z,-0.30
2023-03-08T17:19:39.257Z,-0.30
2023-03-08T17:22:08.677Z,-0.30
2023-03-08T17:24:35.698Z,-0.30
2023-03-08T17:27:02.723Z,-0.40
2023-03-08T17:29:29.738Z,-0.40
2023-03-08T17:31:56.692Z,-0.40
2023-03-08T17:34:26.034Z,-0.40
2023-03-08T17:36:53.516Z,-0.40
2023-03-08T17:39:20.708Z,-0.50
2023-03-08T17:41:47.969Z,-0.50
2023-03-08T17:44:15.491Z,-0.50
2023-03-08T17:46:42.557Z,-0.50
2023-03-08T17:49:12.037Z,-0.50
2023-03-08T17:51:39.093Z,-0.40
2023-03-08T17:54:07.450Z,-0.40
2023-03-08T17:56:38.628Z,-0.40
2023-03-08T17:59:05.583Z,-0.40
2023-03-08T18:01:32.747Z,-0.40
2023-03-08T18:04:01.245Z,-0.40
2023-03-08T18:06:34.381Z,-0.40
2023-03-08T18:09:05.994Z,-0.40
2023-03-08T18:11:37.576Z,-0.30
2023-03-08T18:14:06.286Z,-0.30
2023-03-08T18:16:34.509Z,-0.30
2023-03-08T18:19:02.477Z,-0.40
2023-03-08T18:21:32.303Z,-0.30
2023-03-08T18:23:59.806Z,-0.30
2023-03-08T18:26:26.972Z,-0.30
2023-03-08T18:28:53.948Z,-0.30
2023-03-08T18:31:23.640Z,-0.20
2023-03-08T18:33:52.420Z,-0.30
2023-03-08T18:36:21.508Z,-0.30
2023-03-08T18:38:48.502Z,-0.20
2023-03-08T18:41:27.274Z,-0.20
2023-03-08T18:43:55.408Z,-0.20
2023-03-08T18:46:33.298Z,-0.30
2023-03-08T18:49:08.837Z,-0.30
2023-03-08T18:51:38.496Z,-0.30
2023-03-08T18:54:08.997Z,-0.30
2023-03-08T18:56:36.037Z,-0.30
2023-03-08T18:59:05.342Z,-0.30
2023-03-08T19:01:33.110Z,-0.30
2023-03-08T19:04:03.927Z,-0.30
2023-03-08T19:06:31.072Z,-0.20
2023-03-08T19:08:58.125Z,-0.20
2023-03-08T19:11:28.297Z,-0.30
2023-03-08T19:13:55.557Z,-0.30
2023-03-08T19:16:28.519Z,-0.30
2023-03-08T19:18:59.348Z,-0.20
2023-03-08T19:21:32.602Z,-0.30
2023-03-08T19:23:59.833Z,-0.40
2023-03-08T19:26:38.927Z,-0.30
2023-03-08T19:29:36.839Z,-0.20
2023-03-08T19:32:06.998Z,-0.30
2023-03-08T19:34:40.355Z,-0.30
2023-03-08T19:37:07.953Z,-0.30
2023-03-08T19:39:37.389Z,-0.30
2023-03-08T19:42:11.017Z,-0.30
2023-03-08T19:44:38.024Z,-0.30
2023-03-08T19:47:05.438Z,-0.20
2023-03-08T19:49:34.925Z,-0.20
2023-03-08T19:52:04.829Z,-0.20
2023-03-08T19:54:32.641Z,-0.20
2023-03-08T19:57:00.264Z,-0.30
2023-03-08T19:59:27.461Z,-0.30
2023-03-08T20:01:55.633Z,-0.30
2023-03-08T20:04:23.037Z,-0.30
2023-03-08T20:06:50.717Z,-0.20
2023-03-08T20:09:21.711Z,-0.30
2023-03-08T20:11:57.523Z,-0.30
2023-03-08T20:14:27.550Z,-0.30
2023-03-08T20:16:55.606Z,-0.20
2023-03-08T20:19:23.043Z,-0.30
2023-03-08T20:21:50.061Z,-0.30
2023-03-08T20:24:18.902Z,-0.30
2023-03-08T20:26:46.564Z,-0.30
2023-03-08T20:29:13.868Z,-0.30
2023-03-08T20:31:41.869Z,-0.30
2023-03-08T20:34:09.028Z,-0.30
2023-03-08T20:36:36.984Z,-0.40
2023-03-08T20:39:04.683Z,-0.30
2023-03-08T20:41:31.623Z,-0.40
2023-03-08T20:43:58.740Z,-0.40
2023-03-08T20:46:31.142Z,-0.40
2023-03-08T20:48:58.609Z,-0.40
2023-03-08T20:51:26.115Z,-0.40
2023-03-08T20:53:54.626Z,-0.40
2023-03-08T20:56:23.637Z,-0.50
2023-03-08T20:58:54.340Z,-0.40
2023-03-08T21:01:25.091Z,-0.50
2023-03-08T21:03:52.249Z,-0.40
2023-03-08T21:06:25.231Z,-0.40
2023-03-08T21:08:53.220Z,-0.40
2023-03-08T21:11:20.824Z,-0.40
2023-03-08T21:13:49.451Z,-0.50
2023-03-08T21:16:18.017Z,-0.50
2023-03-08T21:18:49.323Z,-0.50
2023-03-08T21:21:27.437Z,-0.50
2023-03-08T21:23:59.865Z,-0.50
2023-03-08T21:26:28.035Z,-0.50
2023-03-08T21:29:03.658Z,-0.50
2023-03-08T21:31:32.856Z,-0.60
2023-03-08T21:34:03.022Z,-0.60
2023-03-08T21:36:30.718Z,-0.60
2023-03-08T21:38:59.204Z,-0.60
2023-03-08T21:41:29.433Z,-0.60
2023-03-08T21:43:57.004Z,-0.70
2023-03-08T21:46:24.750Z,-0.60
2023-03-08T21:48:51.761Z,-0.70
2023-03-08T21:51:18.760Z,-0.70
2023-03-08T21:53:45.799Z,-0.70
2023-03-08T21:56:14.786Z,-0.70
2023-03-08T21:58:42.220Z,-0.80
2023-03-08T22:01:22.339Z,-0.90
2023-03-08T22:03:49.715Z,-0.90
2023-03-08T22:06:17.231Z,-0.90
2023-03-08T22:08:44.992Z,-0.80
2023-03-08T22:11:12.111Z,-0.90
2023-03-08T22:13:39.144Z,-0.90
2023-03-08T22:16:06.841Z,-0.90
2023-03-08T22:18:34.416Z,-1.00
2023-03-08T22:21:01.577Z,-1.00
2023-03-08T22:23:28.586Z,-1.00
2023-03-08T22:25:55.924Z,-1.10
2023-03-08T22:28:23.107Z,-1.20
2023-03-08T22:30:50.247Z,-1.20
2023-03-08T22:33:17.495Z,-1.20
2023-03-08T22:35:46.320Z,-1.20
2023-03-08T22:38:13.400Z,-1.30
2023-03-08T22:40:43.951Z,-1.40
2023-03-08T22:43:11.471Z,-1.40
2023-03-08T22:45:38.536Z,-1.50
2023-03-08T22:48:06.927Z,-1.50
2023-03-08T22:50:34.112Z,-1.50
2023-03-08T22:53:01.577Z,-1.60
2023-03-08T22:55:28.654Z,-1.60
2023-03-08T22:57:55.802Z,-1.60
2023-03-08T23:00:22.812Z,-1.60
2023-03-08T23:02:50.019Z,-1.60
2023-03-08T23:05:19.664Z,-1.60
2023-03-08T23:07:46.940Z,-1.60
2023-03-08T23:10:15.584Z,-1.60
2023-03-08T23:12:43.008Z,-1.60
2023-03-08T23:15:10.682Z,-1.50
2023-03-08T23:17:37.657Z,-1.60
2023-03-08T23:20:05.865Z,-1.60
2023-03-08T23:22:33.223Z,-1.70
2023-03-08T23:25:00.293Z,-1.70
2023-03-08T23:27:27.379Z,-1.60
2023-03-08T23:29:54.362Z,-1.70
2023-03-08T23:32:21.553Z,-1.70
2023-03-08T23:34:48.705Z,-1.70
2023-03-08T23:37:15.613Z,-1.70
2023-03-08T23:39:42.546Z,-1.70
2023-03-08T23:42:09.513Z,-1.90
2023-03-08T23:44:37.969Z,-1.90
2023-03-08T23:47:05.281Z,-1.90
2023-03-08T23:49:32.450Z,-2.00
2023-03-08T23:51:59.794Z,-2.00
2023-03-08T23:54:26.930Z,-2.10
2023-03-08T23:56:53.895Z,-2.20
2023-03-08T23:59:22.878Z,-2.10
